NY/NJ Local METAR Reports

 

KNYC - NYC/Central Park, NY, USA
Distance from Hoboken: NE 4mi, 7km
Updated: 07/23/2017 8:36am
Mist, Mostly cloudy
Mist, Mostly cloudy
 Wind from calm
Wind: Calm
Temperature: 73°F , 23°C
Dew Point: 72°F , 22°C
Humidity: 94%
Barometer: 29.82 inHg , 1009.8 hPa
Summary: Mist
Clouds: Mostly cloudy
Visibility: 4 miles , 6 km
Cloud details: Mostly cloudy 1600 ft
Mostly cloudy 8000 ft
2017/07/23 12:36 KNYC 231236Z AUTO 00000KT 4SM BR BKN016 BKN080 23/22 A2982 RMK AO2 T02280217
KEWR - Newark, NJ, USA
Distance from Hoboken: WSW 8mi, 13km
Updated: 07/23/2017 7:51am
Overcast
Overcast
 Wind from calm
Wind: Calm
Temperature: 72°F , 22°C
Dew Point: 70°F , 21°C
Humidity: 94%
Barometer: 29.77 inHg , 1008.1 hPa
Clouds: Overcast
Visibility: 8 miles , 13 km
Cloud details: Few Clouds 1200 ft
Mostly cloudy 6000 ft
Overcast 7500 ft
2017/07/23 11:51 KEWR 231151Z 00000KT 8SM FEW012 BKN060 OVC075 22/21 A2977 RMK AO2 SLP082 60004 70044 T02220206 10222 20211 53009 $
 
KLGA - NYC/La Guardia, NY, USA
Distance from Hoboken: ENE 8mi, 13km
Updated: 07/23/2017 7:51am
Mist, Mostly cloudy
Mist, Mostly cloudy
 Wind from S
Wind: S 3 mph , 6 km/h
Temperature: 73°F , 23°C
Dew Point: 70°F , 21°C
Humidity: 89%
Barometer: 29.76 inHg , 1007.8 hPa
Summary: Mist
Clouds: Mostly cloudy
Visibility: 6 miles , 10 km
Cloud details: Partly cloudy 1500 ft
Mostly cloudy 2000 ft
Mostly cloudy 10000 ft
2017/07/23 11:51 KLGA 231151Z 19003KT 6SM BR SCT015 BKN020 BKN100 23/21 A2976 RMK AO2 SLP078 60002 70060 T02330211 10239 20222 53009
KTEB - Teterboro, NJ, USA
Distance from Hoboken: N 9mi, 14km
Updated: 07/23/2017 7:51am
Mist, Overcast
Mist, Overcast
 Wind from calm
Wind: Calm
Temperature: 75°F , 24°C
Dew Point: 72°F , 22°C
Humidity: 89%
Barometer: 29.76 inHg , 1007.8 hPa
Summary: Mist
Clouds: Overcast
Visibility: 4 miles , 6 km
Cloud details: Partly cloudy 1100 ft
Overcast 8000 ft
2017/07/23 11:51 KTEB 231151Z 00000KT 4SM BR SCT011 OVC080 24/22 A2976 RMK AO2 SLP077 60000 70040 T02390217 10239 20222 53008
 
KJFK - NYC/Jfk Arpt, NY, USA
Distance from Hoboken: ESE 16mi, 25km
Updated: 07/23/2017 7:58am
Overcast
Overcast
 Wind from SE
Wind: SE 6 mph , 9 km/h
Temperature: 72°F , 22°C
Dew Point: 70°F , 21°C
Humidity: 94%
Barometer: 29.78 inHg , 1008.5 hPa
Clouds: Overcast
Visibility: 9 miles , 14 km
Cloud details: Few Clouds 700 ft
Partly cloudy 1100 ft
Overcast 7000 ft
2017/07/23 11:58 KJFK 231158Z 13005KT 9SM FEW007 SCT011 OVC070 22/21 A2978 RMK AO2 T02220211
KCDW - Caldwell, NJ, USA
Distance from Hoboken: NW 16mi, 26km
Updated: 07/23/2017 8:20am
Mist, Overcast
Mist, Overcast
 Wind from calm
Wind: Calm
Temperature: 73°F , 23°C
Dew Point: 70°F , 21°C
Humidity: 89%
Barometer: 29.80 inHg , 1009.1 hPa
Summary: Mist
Clouds: Overcast
Visibility: 6 miles , 10 km
Cloud details: Mostly cloudy 900 ft
Mostly cloudy 7500 ft
Overcast 9500 ft
2017/07/23 12:20 KCDW 231220Z 00000KT 6SM BR BKN009 BKN075 OVC095 23/21 A2980 RMK AO2 CIG 008V011 T02280211 $
 
KMMU - Morristown Muni, NJ, USA
Distance from Hoboken: W 20mi, 33km
Updated: 07/23/2017 7:45am
Mist, Overcast
Mist, Overcast
 Wind from calm
Wind: Calm
Temperature: 72°F , 22°C
Dew Point: 70°F , 21°C
Humidity: 94%
Barometer: 29.78 inHg , 1008.5 hPa
Summary: Mist
Clouds: Overcast
Visibility: 4 miles , 6 km
Cloud details: Partly cloudy 2700 ft
Overcast 6500 ft
2017/07/23 11:45 KMMU 231145Z 00000KT 4SM BR SCT027 OVC065 22/21 A2978
KHPN - White Plains, NY, USA
Distance from Hoboken: NE 28mi, 46km
Updated: 07/23/2017 7:56am
Mostly cloudy
Mostly cloudy
 Wind from NE
Wind: NE 5 mph , 7 km/h
Temperature: 73°F , 23°C
Dew Point: 66°F , 19°C
Humidity: 78%
Barometer: 29.78 inHg , 1008.5 hPa
Clouds: Mostly cloudy
Visibility: 10 miles , 16 km
Cloud details: Few Clouds 4000 ft
Mostly cloudy 8500 ft
2017/07/23 11:56 KHPN 231156Z 05004KT 10SM FEW040 BKN085 23/19 A2978 RMK SLP077
 
KFRG - Farmingdale, NY, USA
Distance from Hoboken: E 32mi, 52km
Updated: 07/23/2017 7:53am
Overcast
Overcast
 Wind from SE
Wind: SE 3 mph , 6 km/h
Temperature: 72°F , 22°C
Dew Point: 68°F , 20°C
Humidity: 88%
Barometer: 29.78 inHg , 1008.5 hPa
Clouds: Overcast
Visibility: 10 miles , 16 km
Cloud details: Mostly cloudy 8500 ft
Overcast 11000 ft
2017/07/23 11:53 KFRG 231153Z AUTO 14003KT 10SM BKN085 OVC110 22/20 A2978 RMK AO2 SLP083 60004 70041 T02170200 10228 20211 53011
KSMQ - Somerville, NJ, USA
Distance from Hoboken: WSW 34mi, 55km
Updated: 07/23/2017 8:05am
Mist, Overcast
Mist, Overcast
 Wind from calm
Wind: Calm
Temperature: 73°F , 23°C
Dew Point: 72°F , 22°C
Humidity: 94%
Barometer: 29.77 inHg , 1008.1 hPa
Summary: Mist
Clouds: Overcast
Visibility: 4 miles , 6 km
Cloud details: Few Clouds 500 ft
Overcast 6000 ft
2017/07/23 12:05 KSMQ 231205Z AUTO 00000KT 4SM BR FEW005 OVC060 23/22 A2977 RMK AO2 T02330222
 
KBLM - Belmar/Farmdale, NJ, USA
Distance from Hoboken: S 40mi, 64km
Updated: 07/23/2017 8:13am
Overcast
Overcast
 Wind from ENE
Wind: ENE 3 mph , 6 km/h
Temperature: 72°F , 22°C
Dew Point: 68°F , 20°C
Humidity: 88%
Barometer: 29.79 inHg , 1008.8 hPa
Clouds: Overcast
Visibility: 10 miles , 16 km
Cloud details: Partly cloudy 2700 ft
Overcast 3300 ft
2017/07/23 12:13 KBLM 231213Z AUTO 06003KT 10SM SCT027 OVC033 22/20 A2979 RMK AO2
K12N - Andover, NJ, USA
Distance from Hoboken: WNW 41mi, 67km
Updated: 07/23/2017 7:54am

 Wind from ENE
Wind: ENE 3 mph , 6 km/h
Temperature: 70°F , 21°C
Dew Point: 66°F , 19°C
Humidity: 88%
Barometer: 29.80 inHg , 1009.1 hPa
2017/07/23 11:54 K12N 231154Z AUTO 06003KT 21/19 A2980 RMK AO1 SLP084 70028 T02110194 10217 20211 53009
 
KFWN - Sussex, NJ, USA
Distance from Hoboken: NW 45mi, 72km
Updated: 07/23/2017 7:53am
Overcast
Overcast
 Wind from NE
Wind: NE 6 mph , 9 km/h
Temperature: 72°F , 22°C
Dew Point: 68°F , 20°C
Humidity: 88%
Barometer: 29.80 inHg , 1009.1 hPa
Clouds: Overcast
Visibility: 10 miles , 16 km
Cloud details: Overcast 8500 ft
2017/07/23 11:53 KFWN 231153Z AUTO 04005KT 10SM OVC085 22/20 A2980 RMK AO2 SLP088 60000 70002 T02220200 10222 20206 53012 $
KISP - Islip, NY, USA
Distance from Hoboken: E 49mi, 79km
Updated: 07/23/2017 7:56am
Overcast
Overcast
 Wind from W
Wind: W 3 mph , 6 km/h
Temperature: 72°F , 22°C
Dew Point: 66°F , 19°C
Humidity: 83%
Barometer: 29.77 inHg , 1008.1 hPa
Clouds: Overcast
Visibility: 10 miles , 16 km
Cloud details: Mostly cloudy 1700 ft
Mostly cloudy 9000 ft
Overcast 11000 ft
2017/07/23 11:56 KISP 231156Z 26003KT 10SM BKN017 BKN090 OVC110 22/19 A2977 RMK AO2 SLP081 60008 70025 T02220194 10222 20211 53010